Time;durP1;ratioP1;P1;durP2;ratioP2;P2;SDS_P1;SDS_P2;PMS_P1;PMS_P2;Temp;Humidity;BMP_temperature;BMP_pressure;BME280_temperature;BME280_humidity;BME280_pressure;Samples;Min_cycle;Max_cycle;Signal;HPM_P1;HPM_P2
2023/01/05 00:00:50;;;;;;;1999.90;999.90;;;;;;;;;;5030120;28;20077;-59
2023/01/05 00:03:16;;;;;;;1999.90;999.90;;;;;;;;;;5029421;28;20065;-60
2023/01/05 00:05:43;;;;;;;1999.90;999.90;;;;;;;;;;5030190;28;20041;-60
2023/01/05 00:08:10;;;;;;;1999.90;999.90;;;;;;;;;;5029715;28;20801;-59
2023/01/05 00:24:29;;;;;;;1999.90;999.90;;;;;;;;;;5029550;28;20088;-59
2023/01/05 00:26:57;;;;;;;1999.90;999.90;;;;;;;;;;5029987;28;20092;-59
2023/01/05 00:29:23;;;;;;;1999.90;999.90;;;;;;;;;;5029321;28;20143;-59
2023/01/05 00:31:50;;;;;;;1999.90;999.90;;;;;;;;;;5029642;28;20132;-59
2023/01/05 00:34:16;;;;;;;1999.90;999.90;;;;;;;;;;5029424;28;20471;-58
2023/01/05 00:36:43;;;;;;;1999.90;999.90;;;;;;;;;;5028717;28;20141;-59
2023/01/05 00:39:09;;;;;;;1999.90;999.90;;;;;;;;;;5029086;28;20136;-58
2023/01/05 00:41:36;;;;;;;1999.90;999.90;;;;;;;;;;5028507;28;20144;-58
2023/01/05 00:44:04;;;;;;;1999.90;999.90;;;;;;;;;;5029096;28;20500;-59
2023/01/05 00:46:31;;;;;;;1999.90;999.90;;;;;;;;;;5029189;28;20088;-59
2023/01/05 00:48:58;;;;;;;1999.90;999.90;;;;;;;;;;5029531;28;20092;-59
2023/01/05 00:51:25;;;;;;;1999.90;999.90;;;;;;;;;;5029606;28;20495;-59
2023/01/05 00:53:51;;;;;;;1999.90;999.90;;;;;;;;;;5029261;28;20141;-58
2023/01/05 00:56:17;;;;;;;1999.90;999.90;;;;;;;;;;5029528;28;20836;-59
2023/01/05 00:58:44;;;;;;;1999.90;999.90;;;;;;;;;;5029187;28;20460;-59
2023/01/05 01:01:12;;;;;;;1999.90;999.90;;;;;;;;;;5029264;28;20622;-59
2023/01/05 01:03:39;;;;;;;1999.90;999.90;;;;;;;;;;5028552;28;20097;-59
2023/01/05 01:06:06;;;;;;;1999.90;999.90;;;;;;;;;;5029501;28;20449;-58
2023/01/05 01:08:33;;;;;;;1999.90;999.90;;;;;;;;;;5029365;28;20132;-59
2023/01/05 01:11:03;;;;;;;1999.90;999.90;;;;;;;;;;5028832;28;20057;-58
2023/01/05 01:13:30;;;;;;;1999.90;999.90;;;;;;;;;;5028762;28;20450;-58
2023/01/05 01:15:56;;;;;;;1999.90;999.90;;;;;;;;;;5029004;28;20059;-60
2023/01/05 01:18:24;;;;;;;1999.90;999.90;;;;;;;;;;5028962;28;20048;-59
2023/01/05 01:20:51;;;;;;;1999.90;999.90;;;;;;;;;;5032767;28;20564;-58
2023/01/05 01:23:17;;;;;;;1999.90;999.90;;;;;;;;;;5032715;28;20165;-59
2023/01/05 01:25:44;;;;;;;1999.90;999.90;;;;;;;;;;5032563;28;20559;-59
2023/01/05 01:28:10;;;;;;;1999.90;999.90;;;;;;;;;;5032839;28;20136;-56
2023/01/05 01:30:38;;;;;;;1999.90;999.90;;;;;;;;;;5031938;28;20140;-60
2023/01/05 01:33:04;;;;;;;1999.90;999.90;;;;;;;;;;5032418;28;20215;-59
2023/01/05 01:35:32;;;;;;;1999.90;999.90;;;;;;;;;;5032840;28;20156;-60
2023/01/05 01:37:59;;;;;;;1999.90;999.90;;;;;;;;;;5031993;28;20132;-59
2023/01/05 01:40:25;;;;;;;1999.90;999.90;;;;;;;;;;5032309;28;20136;-59
2023/01/05 01:42:51;;;;;;;1999.90;999.90;;;;;;;;;;5032320;28;20140;-59
2023/01/05 01:45:19;;;;;;;1999.90;999.90;;;;;;;;;;5032200;28;20095;-59
2023/01/05 01:47:50;;;;;;;1999.90;999.90;;;;;;;;;;5032353;28;20056;-59
2023/01/05 01:50:19;;;;;;;1999.90;999.90;;;;;;;;;;5032086;28;20053;-60
2023/01/05 01:52:49;;;;;;;1999.90;999.90;;;;;;;;;;5031843;28;20472;-59
2023/01/05 01:55:15;;;;;;;1999.90;999.90;;;;;;;;;;5032046;28;20536;-58
2023/01/05 01:57:43;;;;;;;1999.90;999.90;;;;;;;;;;5032062;28;20172;-59
2023/01/05 02:00:17;;;;;;;1999.90;999.90;;;;;;;;;;5031306;28;20504;-59
2023/01/05 02:02:44;;;;;;;1999.90;999.90;;;;;;;;;;5042271;22;20045;-51
2023/01/05 02:05:12;;;;;;;1999.90;999.90;;;;;;;;;;5020695;28;20212;-50
2023/01/05 02:07:44;;;;;;;1999.90;999.90;;;;;;;;;;5025359;28;20483;-52
2023/01/05 02:10:12;;;;;;;1999.90;999.90;;;;;;;;;;5027380;28;20137;-47
2023/01/05 02:12:46;;;;;;;1999.90;999.90;;;;;;;;;;5022425;28;20144;-49
2023/01/05 02:15:22;;;;;;;1999.90;999.90;;;;;;;;;;5023730;28;20567;-49
2023/01/05 02:18:04;;;;;;;1999.90;999.90;;;;;;;;;;5017830;28;20068;-50
2023/01/05 02:20:42;;;;;;;1999.90;999.90;;;;;;;;;;5020170;28;20502;-50
2023/01/05 02:23:32;;;;;;;1999.90;999.90;;;;;;;;;;5023971;28;20049;-46
2023/01/05 02:26:24;;;;;;;1999.90;999.90;;;;;;;;;;5025375;28;20046;-48
2023/01/05 02:29:06;;;;;;;1999.90;999.90;;;;;;;;;;5022542;28;20148;-50
2023/01/05 02:31:37;;;;;;;1999.90;999.90;;;;;;;;;;5019033;28;20085;-49
2023/01/05 02:34:09;;;;;;;1999.90;999.90;;;;;;;;;;5022582;28;20125;-50
2023/01/05 02:36:39;;;;;;;1999.90;999.90;;;;;;;;;;5023761;28;20041;-52
2023/01/05 02:39:11;;;;;;;1999.90;999.90;;;;;;;;;;5021721;28;20136;-49
2023/01/05 02:41:41;;;;;;;1999.90;999.90;;;;;;;;;;5025830;28;20461;-48
2023/01/05 02:44:08;;;;;;;1999.90;999.90;;;;;;;;;;5024000;28;20056;-48
2023/01/05 02:46:36;;;;;;;1999.90;999.90;;;;;;;;;;5023211;28;20630;-47
2023/01/05 02:49:04;;;;;;;1999.90;999.90;;;;;;;;;;5021979;28;20077;-50
2023/01/05 02:51:34;;;;;;;1999.90;999.90;;;;;;;;;;5019567;28;20136;-49
2023/01/05 02:54:03;;;;;;;1999.90;999.90;;;;;;;;;;5021657;28;20144;-52
2023/01/05 02:56:33;;;;;;;1999.90;999.90;;;;;;;;;;5026430;28;20415;-49
2023/01/05 02:59:03;;;;;;;1999.90;999.90;;;;;;;;;;5021910;28;20132;-47
2023/01/05 03:01:31;;;;;;;1999.90;999.90;;;;;;;;;;5020848;28;20472;-47
2023/01/05 03:04:01;;;;;;;1999.90;999.90;;;;;;;;;;5022210;28;20503;-48
2023/01/05 03:06:30;;;;;;;1999.90;999.90;;;;;;;;;;5024243;28;20128;-49
2023/01/05 03:08:59;;;;;;;1999.90;999.90;;;;;;;;;;5025174;28;20139;-48
2023/01/05 03:14:18;;;;;;;1999.90;999.90;;;;;;;;;;5019457;28;20084;-47
2023/01/05 03:16:46;;;;;;;1999.90;999.90;;;;;;;;;;5024166;28;20140;-48
2023/01/05 03:36:30;;;;;;;1999.90;999.90;;;;;;;;;;5019979;28;20099;-49
2023/01/05 03:38:59;;;;;;;1999.90;999.90;;;;;;;;;;5024175;28;20152;-48
2023/01/05 03:41:26;;;;;;;1999.90;999.90;;;;;;;;;;5025067;28;20136;-49
2023/01/05 03:43:53;;;;;;;1999.90;999.90;;;;;;;;;;5025344;28;20057;-52
2023/01/05 03:46:21;;;;;;;1999.90;999.90;;;;;;;;;;5019966;28;20140;-49
2023/01/05 03:48:48;;;;;;;1999.90;999.90;;;;;;;;;;5018928;28;20091;-48
2023/01/05 03:51:16;;;;;;;1999.90;999.90;;;;;;;;;;5020239;28;20125;-50
2023/01/05 03:53:44;;;;;;;1999.90;999.90;;;;;;;;;;5016999;28;20069;-52
2023/01/05 03:56:10;;;;;;;1999.90;999.90;;;;;;;;;;5020568;28;20567;-46
2023/01/05 03:58:36;;;;;;;1999.90;999.90;;;;;;;;;;5018528;28;20141;-49
2023/01/05 04:01:04;;;;;;;1999.90;999.90;;;;;;;;;;5022525;28;20578;-47
2023/01/05 04:03:30;;;;;;;1999.90;999.90;;;;;;;;;;5023591;28;20145;-46
2023/01/05 04:05:57;;;;;;;1999.90;999.90;;;;;;;;;;5023940;28;20081;-50
2023/01/05 04:08:23;;;;;;;1999.90;999.90;;;;;;;;;;5018952;28;20050;-49
2023/01/05 04:10:53;;;;;;;1999.90;999.90;;;;;;;;;;5023673;28;20049;-49
2023/01/05 04:13:19;;;;;;;1999.90;999.90;;;;;;;;;;5023820;28;20136;-50
2023/01/05 04:15:46;;;;;;;1999.90;999.90;;;;;;;;;;5018397;28;20165;-51
2023/01/05 04:18:12;;;;;;;1999.90;999.90;;;;;;;;;;5026223;28;20060;-47
2023/01/05 04:20:39;;;;;;;1999.90;999.90;;;;;;;;;;5022632;28;20080;-49
2023/01/05 04:23:05;;;;;;;1999.90;999.90;;;;;;;;;;5021677;28;20140;-48
2023/01/05 04:25:32;;;;;;;1999.90;999.90;;;;;;;;;;5017493;28;20050;-49
2023/01/05 04:27:59;;;;;;;1999.90;999.90;;;;;;;;;;5021838;28;20606;-46
2023/01/05 04:30:26;;;;;;;1999.90;999.90;;;;;;;;;;5017106;28;20145;-48
2023/01/05 04:32:52;;;;;;;1999.90;999.90;;;;;;;;;;5023941;28;20084;-49
2023/01/05 04:35:20;;;;;;;1999.90;999.90;;;;;;;;;;5026081;28;20487;-50
2023/01/05 04:37:46;;;;;;;1999.90;999.90;;;;;;;;;;5024988;28;20057;-52
2023/01/05 04:40:13;;;;;;;1999.90;999.90;;;;;;;;;;5020318;28;20049;-50
2023/01/05 04:42:39;;;;;;;1999.90;999.90;;;;;;;;;;5021327;28;20128;-50
2023/01/05 04:45:09;;;;;;;1999.90;999.90;;;;;;;;;;5021652;28;20415;-48
2023/01/05 04:47:35;;;;;;;1999.90;999.90;;;;;;;;;;5020141;28;20412;-50
2023/01/05 04:50:02;;;;;;;1999.90;999.90;;;;;;;;;;5017987;28;20136;-50
2023/01/05 04:52:28;;;;;;;1999.90;999.90;;;;;;;;;;5018581;28;20164;-51
2023/01/05 04:54:55;;;;;;;1999.90;999.90;;;;;;;;;;5021266;28;20400;-50
2023/01/05 04:57:21;;;;;;;1999.90;999.90;;;;;;;;;;5024372;28;20124;-53
2023/01/05 04:59:48;;;;;;;1999.90;999.90;;;;;;;;;;5020844;28;20140;-49
2023/01/05 05:02:16;;;;;;;1999.90;999.90;;;;;;;;;;5030030;28;20049;-46
2023/01/05 05:04:42;;;;;;;1999.90;999.90;;;;;;;;;;5030630;28;20128;-46
2023/01/05 05:07:08;;;;;;;1999.90;999.90;;;;;;;;;;5028388;28;20141;-49
2023/01/05 05:09:35;;;;;;;1999.90;999.90;;;;;;;;;;5024424;28;20077;-49
2023/01/05 05:12:01;;;;;;;1999.90;999.90;;;;;;;;;;5026175;28;20137;-51
2023/01/05 05:14:28;;;;;;;1999.90;999.90;;;;;;;;;;5022047;28;20144;-50
2023/01/05 05:16:54;;;;;;;1999.90;999.90;;;;;;;;;;5021051;28;20129;-52
2023/01/05 05:19:22;;;;;;;1999.90;999.90;;;;;;;;;;5024138;28;20501;-51
2023/01/05 05:21:49;;;;;;;1999.90;999.90;;;;;;;;;;5016447;28;20523;-48
2023/01/05 05:24:15;;;;;;;1999.90;999.90;;;;;;;;;;5022296;28;20140;-50
2023/01/05 05:26:42;;;;;;;1999.90;999.90;;;;;;;;;;5025606;28;20088;-51
2023/01/05 05:29:08;;;;;;;1999.90;999.90;;;;;;;;;;5025512;28;20080;-49
2023/01/05 05:31:35;;;;;;;1999.90;999.90;;;;;;;;;;5020498;28;20153;-49
2023/01/05 05:34:02;;;;;;;1999.90;999.90;;;;;;;;;;5025931;28;20058;-52
2023/01/05 05:36:29;;;;;;;1999.90;999.90;;;;;;;;;;5025194;28;20132;-51
2023/01/05 05:38:57;;;;;;;1999.90;999.90;;;;;;;;;;5024217;28;20136;-51
2023/01/05 05:41:24;;;;;;;1999.90;999.90;;;;;;;;;;5021305;28;20443;-50
2023/01/05 05:43:50;;;;;;;1999.90;999.90;;;;;;;;;;5021778;28;20099;-50
2023/01/05 05:46:17;;;;;;;1999.90;999.90;;;;;;;;;;5022275;28;20077;-50
2023/01/05 05:48:43;;;;;;;1999.90;999.90;;;;;;;;;;5023318;28;20140;-47
2023/01/05 05:51:10;;;;;;;1999.90;999.90;;;;;;;;;;5021674;28;20081;-50
2023/01/05 05:53:38;;;;;;;1999.90;999.90;;;;;;;;;;5024943;28;20211;-49
2023/01/05 05:56:05;;;;;;;1999.90;999.90;;;;;;;;;;5021100;28;20100;-49
2023/01/05 05:58:32;;;;;;;1999.90;999.90;;;;;;;;;;5026576;28;20055;-50
2023/01/05 06:00:59;;;;;;;1999.90;999.90;;;;;;;;;;5022534;28;20140;-50
2023/01/05 06:03:25;;;;;;;1999.90;999.90;;;;;;;;;;5024952;28;20077;-49
2023/01/05 06:05:52;;;;;;;1999.90;999.90;;;;;;;;;;5025319;28;20045;-50
2023/01/05 06:08:18;;;;;;;1999.90;999.90;;;;;;;;;;5024761;28;20136;-50
2023/01/05 06:10:48;;;;;;;1999.90;999.90;;;;;;;;;;5026331;28;20166;-49
2023/01/05 06:13:14;;;;;;;1999.90;999.90;;;;;;;;;;5022088;28;20049;-48
2023/01/05 06:15:42;;;;;;;1999.90;999.90;;;;;;;;;;5020141;28;20584;-51
2023/01/05 06:18:09;;;;;;;1999.90;999.90;;;;;;;;;;5021239;28;20108;-53
2023/01/05 06:20:35;;;;;;;1999.90;999.90;;;;;;;;;;5022253;28;20457;-50
2023/01/05 06:23:02;;;;;;;1999.90;999.90;;;;;;;;;;5019987;28;20128;-50
2023/01/05 06:25:28;;;;;;;1999.90;999.90;;;;;;;;;;5026587;28;20159;-49
2023/01/05 06:27:56;;;;;;;1999.90;999.90;;;;;;;;;;5021791;28;20048;-52
2023/01/05 06:30:23;;;;;;;1999.90;999.90;;;;;;;;;;5029769;28;20045;-47
2023/01/05 06:32:49;;;;;;;1999.90;999.90;;;;;;;;;;5028877;28;20057;-46
2023/01/05 06:35:16;;;;;;;1999.90;999.90;;;;;;;;;;5023256;28;20157;-49
2023/01/05 06:37:42;;;;;;;1999.90;999.90;;;;;;;;;;5025465;28;20041;-46
2023/01/05 06:40:10;;;;;;;1999.90;999.90;;;;;;;;;;5022441;28;20410;-52
2023/01/05 06:42:37;;;;;;;1999.90;999.90;;;;;;;;;;5018100;28;20053;-48
2023/01/05 06:45:06;;;;;;;1999.90;999.90;;;;;;;;;;5019411;28;20079;-49
2023/01/05 06:47:32;;;;;;;1999.90;999.90;;;;;;;;;;5025127;28;20125;-50
2023/01/05 06:49:59;;;;;;;1999.90;999.90;;;;;;;;;;5019380;28;20053;-49
2023/01/05 06:52:25;;;;;;;1999.90;999.90;;;;;;;;;;5025481;28;20083;-46
2023/01/05 06:54:52;;;;;;;1999.90;999.90;;;;;;;;;;5023245;28;20136;-52
2023/01/05 06:57:18;;;;;;;1999.90;999.90;;;;;;;;;;5016380;28;20152;-49
2023/01/05 06:59:45;;;;;;;1999.90;999.90;;;;;;;;;;5024949;28;20140;-50
2023/01/05 07:02:15;;;;;;;1999.90;999.90;;;;;;;;;;5025005;28;20065;-51
2023/01/05 07:04:42;;;;;;;1999.90;999.90;;;;;;;;;;5022471;28;20141;-47
2023/01/05 07:07:09;;;;;;;1999.90;999.90;;;;;;;;;;5020698;28;20049;-51
2023/01/05 07:09:36;;;;;;;1999.90;999.90;;;;;;;;;;5017980;28;20129;-50
2023/01/05 07:12:02;;;;;;;1999.90;999.90;;;;;;;;;;5020239;28;20136;-50
2023/01/05 07:14:29;;;;;;;1999.90;999.90;;;;;;;;;;5019221;28;20100;-48
2023/01/05 07:16:55;;;;;;;1999.90;999.90;;;;;;;;;;5019899;28;20081;-50
2023/01/05 07:19:23;;;;;;;1999.90;999.90;;;;;;;;;;5021522;28;20148;-48
2023/01/05 07:21:50;;;;;;;1999.90;999.90;;;;;;;;;;5021628;28;20132;-50
2023/01/05 07:24:16;;;;;;;1999.90;999.90;;;;;;;;;;5018591;28;20053;-51
2023/01/05 07:26:43;;;;;;;1999.90;999.90;;;;;;;;;;5025678;28;20475;-50
2023/01/05 07:29:09;;;;;;;1999.90;999.90;;;;;;;;;;5025747;28;20065;-48
2023/01/05 07:31:35;;;;;;;1999.90;999.90;;;;;;;;;;5024193;28;20136;-49
2023/01/05 07:34:02;;;;;;;1999.90;999.90;;;;;;;;;;5020408;28;20721;-48
2023/01/05 07:36:30;;;;;;;1999.90;999.90;;;;;;;;;;5023375;28;20137;-47
2023/01/05 07:38:56;;;;;;;1999.90;999.90;;;;;;;;;;5019501;28;20057;-52
2023/01/05 07:41:23;;;;;;;1999.90;999.90;;;;;;;;;;5020476;28;20052;-48
2023/01/05 07:43:49;;;;;;;1999.90;999.90;;;;;;;;;;5021737;28;20077;-49
2023/01/05 07:46:16;;;;;;;1999.90;999.90;;;;;;;;;;5018823;28;20156;-49
2023/01/05 07:48:43;;;;;;;1999.90;999.90;;;;;;;;;;5022000;28;20168;-51
2023/01/05 07:51:10;;;;;;;1999.90;999.90;;;;;;;;;;5024214;28;20140;-51
2023/01/05 07:53:38;;;;;;;1999.90;999.90;;;;;;;;;;5024903;28;20136;-51
2023/01/05 07:56:06;;;;;;;1999.90;999.90;;;;;;;;;;5021338;28;20140;-47
2023/01/05 07:58:33;;;;;;;1999.90;999.90;;;;;;;;;;5022761;28;20054;-49
2023/01/05 08:01:03;;;;;;;1999.90;999.90;;;;;;;;;;5022077;28;20049;-50
2023/01/05 08:03:29;;;;;;;1999.90;999.90;;;;;;;;;;5023749;28;20062;-52
2023/01/05 08:05:56;;;;;;;1999.90;999.90;;;;;;;;;;5021031;28;20543;-50
2023/01/05 08:08:22;;;;;;;1999.90;999.90;;;;;;;;;;5019058;28;20074;-49
2023/01/05 08:10:50;;;;;;;1999.90;999.90;;;;;;;;;;5019809;28;20137;-45
2023/01/05 08:16:01;;;;;;;1999.90;999.90;;;;;;;;;;5024063;28;20076;-49
2023/01/05 08:18:28;;;;;;;1999.90;999.90;;;;;;;;;;5017990;28;20049;-46
2023/01/05 08:20:55;;;;;;;1999.90;999.90;;;;;;;;;;5020051;28;20474;-47
2023/01/05 08:23:22;;;;;;;1999.90;999.90;;;;;;;;;;5020044;28;20456;-53
2023/01/05 08:25:50;;;;;;;1999.90;999.90;;;;;;;;;;5024260;28;20146;-49
2023/01/05 08:28:17;;;;;;;1999.90;999.90;;;;;;;;;;5021895;28;20926;-49
2023/01/05 08:30:44;;;;;;;1999.90;999.90;;;;;;;;;;5022727;28;20057;-50
2023/01/05 08:33:10;;;;;;;1999.90;999.90;;;;;;;;;;5024328;28;20080;-49
2023/01/05 08:35:40;;;;;;;1999.90;999.90;;;;;;;;;;5021374;28;20573;-51
2023/01/05 08:38:06;;;;;;;1999.90;999.90;;;;;;;;;;5020621;28;20568;-52
2023/01/05 08:40:33;;;;;;;1999.90;999.90;;;;;;;;;;5019719;28;20536;-53
2023/01/05 08:43:01;;;;;;;1999.90;999.90;;;;;;;;;;5021157;28;20054;-47
2023/01/05 08:45:28;;;;;;;1999.90;999.90;;;;;;;;;;5018449;28;20054;-52
2023/01/05 08:47:55;;;;;;;1999.90;999.90;;;;;;;;;;5022095;28;20057;-47
2023/01/05 08:50:21;;;;;;;1999.90;999.90;;;;;;;;;;5022563;28;20053;-52
2023/01/05 08:52:48;;;;;;;1999.90;999.90;;;;;;;;;;5021409;28;20049;-53
2023/01/05 08:55:15;;;;;;;1999.90;999.90;;;;;;;;;;5020345;28;20058;-51
2023/01/05 08:57:41;;;;;;;1999.90;999.90;;;;;;;;;;5020328;28;20045;-53
2023/01/05 09:00:11;;;;;;;1999.90;999.90;;;;;;;;;;5022113;28;20504;-52
2023/01/05 09:02:37;;;;;;;1999.90;999.90;;;;;;;;;;5012716;28;20498;-53
2023/01/05 09:05:04;;;;;;;1999.90;999.90;;;;;;;;;;5002740;28;20477;-51
2023/01/05 09:07:31;;;;;;;1999.90;999.90;;;;;;;;;;5002006;28;20559;-53
2023/01/05 09:09:57;;;;;;;1999.90;999.90;;;;;;;;;;5003643;28;20141;-51
2023/01/05 09:12:24;;;;;;;1999.90;999.90;;;;;;;;;;5002918;28;20050;-50
2023/01/05 09:14:50;;;;;;;1999.90;999.90;;;;;;;;;;5000201;28;20116;-49
2023/01/05 09:17:18;;;;;;;1999.90;999.90;;;;;;;;;;5004887;28;20097;-51
2023/01/05 09:19:44;;;;;;;1999.90;999.90;;;;;;;;;;5002227;28;20548;-49
2023/01/05 09:22:11;;;;;;;1999.90;999.90;;;;;;;;;;4999184;28;20085;-53
2023/01/05 09:24:38;;;;;;;1999.90;999.90;;;;;;;;;;5000205;28;20073;-50
2023/01/05 09:27:06;;;;;;;1999.90;999.90;;;;;;;;;;5005001;28;20050;-52
2023/01/05 09:29:33;;;;;;;1999.90;999.90;;;;;;;;;;5001648;28;20073;-48
2023/01/05 09:31:59;;;;;;;1999.90;999.90;;;;;;;;;;5000693;28;20148;-50
2023/01/05 09:34:27;;;;;;;1999.90;999.90;;;;;;;;;;5000011;28;20492;-54
2023/01/05 09:36:54;;;;;;;1999.90;999.90;;;;;;;;;;4998805;28;20537;-56
2023/01/05 09:39:20;;;;;;;1999.90;999.90;;;;;;;;;;4998396;28;20093;-53
2023/01/05 09:41:48;;;;;;;1999.90;999.90;;;;;;;;;;5002905;28;20508;-54
2023/01/05 09:44:25;;;;;;;1999.90;999.90;;;;;;;;;;5003632;28;20550;-56
2023/01/05 09:46:52;;;;;;;1999.90;999.90;;;;;;;;;;5007888;28;20128;-58
2023/01/05 09:49:21;;;;;;;1999.90;999.90;;;;;;;;;;5002381;28;20133;-56
2023/01/05 09:51:49;;;;;;;1999.90;999.90;;;;;;;;;;5002944;28;20145;-55
2023/01/05 09:54:18;;;;;;;1999.90;999.90;;;;;;;;;;4999926;28;20061;-52
2023/01/05 09:56:46;;;;;;;1999.90;999.90;;;;;;;;;;5009539;28;20489;-56
2023/01/05 09:59:15;;;;;;;1999.90;999.90;;;;;;;;;;5003811;28;20134;-56
2023/01/05 10:01:42;;;;;;;1999.90;999.90;;;;;;;;;;5005684;28;20824;-53
2023/01/05 10:04:13;;;;;;;1999.90;999.90;;;;;;;;;;5022110;28;20145;-52
2023/01/05 10:06:43;;;;;;;1999.90;999.90;;;;;;;;;;5023957;28;20488;-54
2023/01/05 10:09:15;;;;;;;1999.90;999.90;;;;;;;;;;5023013;28;20819;-54
2023/01/05 10:14:35;;;;;;;1999.90;999.90;;;;;;;;;;5023041;28;20065;-54
2023/01/05 10:17:02;;;;;;;1999.90;999.90;;;;;;;;;;5023972;28;20068;-56
2023/01/05 10:19:29;;;;;;;1999.90;999.90;;;;;;;;;;5023346;28;20088;-50
2023/01/05 10:22:04;;;;;;;1999.90;999.90;;;;;;;;;;5023357;28;20132;-55
2023/01/05 10:24:35;;;;;;;;;;;;;;;;;;5023086;28;20053;-60
2023/01/05 10:27:07;;;;;;;1999.90;999.90;;;;;;;;;;5023710;28;19968;-56
2023/01/05 10:29:38;;;;;;;1999.90;999.90;;;;;;;;;;5023557;28;20054;-57
2023/01/05 10:32:11;;;;;;;1999.90;999.90;;;;;;;;;;5020441;28;20164;-54
2023/01/05 10:34:51;;;;;;;1999.90;999.90;;;;;;;;;;5020766;28;20140;-54
2023/01/05 10:37:28;;;;;;;1999.90;999.90;;;;;;;;;;5021487;28;20054;-54
2023/01/05 10:40:03;;;;;;;1999.90;999.90;;;;;;;;;;5022409;28;20148;-52
2023/01/05 10:42:40;;;;;;;1999.90;999.90;;;;;;;;;;5024016;28;20136;-58
2023/01/05 10:45:09;;;;;;;1999.90;999.90;;;;;;;;;;5022764;28;20794;-51
2023/01/05 10:47:37;;;;;;;1999.90;999.90;;;;;;;;;;5022439;28;20482;-53
2023/01/05 10:50:07;;;;;;;1999.90;999.90;;;;;;;;;;5023736;28;20141;-51
2023/01/05 10:52:33;;;;;;;1999.90;999.90;;;;;;;;;;5022649;28;20539;-53
2023/01/05 10:55:02;;;;;;;1999.90;999.90;;;;;;;;;;5023442;28;20053;-48
2023/01/05 10:57:35;;;;;;;1999.90;999.90;;;;;;;;;;5019397;28;20073;-53
2023/01/05 11:00:06;;;;;;;1999.90;999.90;;;;;;;;;;5020902;28;20457;-52
2023/01/05 11:02:35;;;;;;;1999.90;999.90;;;;;;;;;;5018043;28;20061;-48
2023/01/05 11:05:04;;;;;;;1999.90;999.90;;;;;;;;;;5024656;28;20366;-55
2023/01/05 11:07:31;;;;;;;1999.90;999.90;;;;;;;;;;5020935;28;20479;-57
2023/01/05 11:09:57;;;;;;;1999.90;999.90;;;;;;;;;;5023114;28;20054;-56
2023/01/05 11:12:25;;;;;;;1999.90;999.90;;;;;;;;;;5021141;28;20129;-54
2023/01/05 11:14:54;;;;;;;1999.90;999.90;;;;;;;;;;5024382;28;20056;-54
2023/01/05 11:17:22;;;;;;;1999.90;999.90;;;;;;;;;;5020669;28;20089;-54
2023/01/05 11:19:51;;;;;;;1999.90;999.90;;;;;;;;;;5024024;28;20128;-53
2023/01/05 11:22:29;;;;;;;1999.90;999.90;;;;;;;;;;5024494;28;20112;-54
2023/01/05 11:25:13;;;;;;;1999.90;999.90;;;;;;;;;;5019837;28;20515;-52
2023/01/05 11:27:41;;;;;;;1999.90;999.90;;;;;;;;;;5018221;28;20144;-50
2023/01/05 11:30:18;;;;;;;1999.90;999.90;;;;;;;;;;5023544;28;20150;-50
2023/01/05 11:32:46;;;;;;;1999.90;999.90;;;;;;;;;;5021523;28;20053;-51
2023/01/05 11:35:18;;;;;;;1999.90;999.90;;;;;;;;;;5025503;28;20103;-56
2023/01/05 11:37:45;;;;;;;1999.90;999.90;;;;;;;;;;5023180;28;20056;-56
2023/01/05 11:40:16;;;;;;;1999.90;999.90;;;;;;;;;;5018580;28;20128;-54
2023/01/05 11:42:44;;;;;;;1999.90;999.90;;;;;;;;;;5022676;28;20041;-57
2023/01/05 11:45:19;;;;;;;1999.90;999.90;;;;;;;;;;5027119;28;20133;-53
2023/01/05 11:47:47;;;;;;;1999.90;999.90;;;;;;;;;;5022765;28;20053;-54
2023/01/05 11:50:23;;;;;;;1999.90;999.90;;;;;;;;;;5023520;28;20057;-51
2023/01/05 11:52:51;;;;;;;1999.90;999.90;;;;;;;;;;5022102;28;20050;-53
2023/01/05 11:55:30;;;;;;;1999.90;999.90;;;;;;;;;;5020196;28;20500;-56
2023/01/05 11:58:19;;;;;;;1999.90;999.90;;;;;;;;;;5020275;28;20054;-49
2023/01/05 12:01:20;;;;;;;1999.90;999.90;;;;;;;;;;5023832;28;20470;-50
2023/01/05 12:04:00;;;;;;;1999.90;999.90;;;;;;;;;;5017506;28;20073;-54
2023/01/05 12:06:37;;;;;;;1999.90;999.90;;;;;;;;;;5019970;28;20054;-51
2023/01/05 12:09:06;;;;;;;1999.90;999.90;;;;;;;;;;5020280;28;20045;-56
2023/01/05 12:11:39;;;;;;;1999.90;999.90;;;;;;;;;;5022687;28;20128;-54
2023/01/05 12:14:18;;;;;;;1999.90;999.90;;;;;;;;;;5019362;28;20149;-51
2023/01/05 12:16:46;;;;;;;1999.90;999.90;;;;;;;;;;5025148;28;20716;-58
2023/01/05 12:19:28;;;;;;;1999.90;999.90;;;;;;;;;;5018886;28;20049;-56
2023/01/05 12:22:05;;;;;;;1999.90;999.90;;;;;;;;;;5022377;28;20088;-54
2023/01/05 12:24:42;;;;;;;1999.90;999.90;;;;;;;;;;5020340;28;20524;-52
2023/01/05 12:27:24;;;;;;;1999.90;999.90;;;;;;;;;;5018360;28;20136;-54
2023/01/05 12:30:00;;;;;;;1999.90;999.90;;;;;;;;;;5019952;28;20045;-53
2023/01/05 12:32:37;;;;;;;1999.90;999.90;;;;;;;;;;5019022;28;20108;-55
2023/01/05 12:35:20;;;;;;;1999.90;999.90;;;;;;;;;;5020915;28;20057;-56
2023/01/05 12:38:00;;;;;;;1999.90;999.90;;;;;;;;;;5014798;28;20136;-55
2023/01/05 12:40:39;;;;;;;1999.90;999.90;;;;;;;;;;5020995;28;20424;-53
2023/01/05 12:43:08;;;;;;;1999.90;999.90;;;;;;;;;;5019617;28;20176;-54
2023/01/05 12:45:46;;;;;;;1999.90;999.90;;;;;;;;;;5022715;28;20559;-53
2023/01/05 12:48:16;;;;;;;1999.90;999.90;;;;;;;;;;5018410;28;20161;-57
2023/01/05 12:50:46;;;;;;;1999.90;999.90;;;;;;;;;;5019408;28;20049;-58
2023/01/05 12:53:19;;;;;;;1999.90;999.90;;;;;;;;;;5019687;28;20049;-52
2023/01/05 12:55:48;;;;;;;1999.90;999.90;;;;;;;;;;5019774;28;20138;-56
2023/01/05 12:58:18;;;;;;;1999.90;999.90;;;;;;;;;;5021298;28;20168;-57
2023/01/05 13:00:47;;;;;;;1999.90;999.90;;;;;;;;;;5020363;28;20081;-52
2023/01/05 13:03:19;;;;;;;1999.90;999.90;;;;;;;;;;5019655;28;20134;-53
2023/01/05 13:05:51;;;;;;;1999.90;999.90;;;;;;;;;;5022446;28;20129;-54
2023/01/05 13:08:21;;;;;;;1999.90;999.90;;;;;;;;;;5019619;28;20136;-54
2023/01/05 13:10:50;;;;;;;1999.90;999.90;;;;;;;;;;5023600;28;20136;-57
2023/01/05 13:13:18;;;;;;;1999.90;999.90;;;;;;;;;;5022108;28;20158;-55
2023/01/05 13:15:53;;;;;;;1999.90;999.90;;;;;;;;;;5022968;28;20137;-60
2023/01/05 13:18:21;;;;;;;1999.90;999.90;;;;;;;;;;5024447;28;20380;-56
2023/01/05 13:20:51;;;;;;;1999.90;999.90;;;;;;;;;;5022811;28;20049;-56
2023/01/05 13:23:21;;;;;;;1999.90;999.90;;;;;;;;;;5026450;28;20140;-56
2023/01/05 13:25:51;;;;;;;1999.90;999.90;;;;;;;;;;5023627;28;20140;-55
2023/01/05 13:28:23;;;;;;;1999.90;999.90;;;;;;;;;;5022676;28;20630;-59
2023/01/05 13:31:16;;;;;;;1999.90;999.90;;;;;;;;;;5024139;28;20093;-54
2023/01/05 13:33:53;;;;;;;1999.90;999.90;;;;;;;;;;5026829;28;20046;-57
2023/01/05 13:36:29;;;;;;;1999.90;999.90;;;;;;;;;;5022767;28;20088;-54
2023/01/05 13:39:09;;;;;;;1999.90;999.90;;;;;;;;;;5023942;28;20236;-55
2023/01/05 13:41:54;;;;;;;1999.90;999.90;;;;;;;;;;5025916;28;20053;-56
2023/01/05 13:44:33;;;;;;;1999.90;999.90;;;;;;;;;;5024230;28;20088;-57
2023/01/05 13:47:10;;;;;;;1999.90;999.90;;;;;;;;;;5025871;28;20049;-50
2023/01/05 13:50:02;;;;;;;1999.90;999.90;;;;;;;;;;5022744;28;20493;-53
2023/01/05 13:52:37;;;;;;;1999.90;999.90;;;;;;;;;;5025575;28;20119;-57
2023/01/05 13:55:07;;;;;;;1999.90;999.90;;;;;;;;;;5024584;28;20132;-55
2023/01/05 13:57:36;;;;;;;1999.90;999.90;;;;;;;;;;5026119;28;20151;-53
2023/01/05 14:00:07;;;;;;;1999.90;999.90;;;;;;;;;;5018655;28;20137;-48
2023/01/05 14:02:38;;;;;;;1999.90;999.90;;;;;;;;;;5025142;28;20049;-53
2023/01/05 14:05:16;;;;;;;1999.90;999.90;;;;;;;;;;5026072;28;20517;-51
2023/01/05 14:07:42;;;;;;;1999.90;999.90;;;;;;;;;;5022792;28;20173;-53
2023/01/05 14:10:20;;;;;;;1999.90;999.90;;;;;;;;;;5028399;28;20141;-54
2023/01/05 14:12:48;;;;;;;1999.90;999.90;;;;;;;;;;5022881;28;20053;-52
2023/01/05 14:15:37;;;;;;;1999.90;999.90;;;;;;;;;;5021281;28;20137;-52
2023/01/05 14:18:06;;;;;;;1999.90;999.90;;;;;;;;;;5023398;28;20477;-53
2023/01/05 14:20:36;;;;;;;1999.90;999.90;;;;;;;;;;5023136;28;20054;-55
2023/01/05 14:23:24;;;;;;;1999.90;999.90;;;;;;;;;;5022768;28;20523;-57
2023/01/05 14:25:52;;;;;;;1999.90;999.90;;;;;;;;;;5023026;28;20136;-59
2023/01/05 14:28:43;;;;;;;1999.90;999.90;;;;;;;;;;5019989;28;20050;-50
2023/01/05 14:31:36;;;;;;;1999.90;999.90;;;;;;;;;;5023793;28;20049;-56
2023/01/05 14:34:06;;;;;;;1999.90;999.90;;;;;;;;;;5022066;28;20078;-55